Time;durP1;ratioP1;P1;durP2;ratioP2;P2;SDS_P1;SDS_P2;PMS_P1;PMS_P2;Temp;Humidity;BMP_temperature;BMP_pressure;BME280_temperature;BME280_humidity;BME280_pressure;Samples;Min_cycle;Max_cycle;Signal;HPM_P1;HPM_P2
2021/09/08 00:01:54;;;;;;;17.83;12.10;;;16.30;99.90;;;;;;4992963;28;20964;-60
2021/09/08 00:04:21;;;;;;;15.30;11.23;;;16.10;99.90;;;;;;4993362;28;20497;-59
2021/09/08 00:06:49;;;;;;;16.20;12.40;;;16.20;99.90;;;;;;4993043;28;20873;-60
2021/09/08 00:09:18;;;;;;;14.77;11.43;;;16.30;99.90;;;;;;4992762;28;20840;-60
2021/09/08 00:11:45;;;;;;;16.97;10.83;;;16.30;99.90;;;;;;4991525;28;20458;-60
2021/09/08 00:14:12;;;;;;;15.13;11.37;;;16.30;99.90;;;;;;4993154;28;20490;-60
2021/09/08 00:16:39;;;;;;;17.00;11.87;;;16.30;99.90;;;;;;4993055;28;20983;-59
2021/09/08 00:19:06;;;;;;;14.63;12.13;;;16.30;99.90;;;;;;4993050;28;20458;-60
2021/09/08 00:21:33;;;;;;;15.23;11.17;;;16.20;99.90;;;;;;4992598;28;20478;-59
2021/09/08 00:24:02;;;;;;;16.53;13.17;;;16.20;99.90;;;;;;4992299;28;20956;-60
2021/09/08 00:26:29;;;;;;;14.03;11.40;;;16.10;99.90;;;;;;4992649;28;20488;-59
2021/09/08 00:28:56;;;;;;;16.33;11.60;;;16.10;99.90;;;;;;4992975;28;20458;-59
2021/09/08 00:31:23;;;;;;;16.13;12.10;;;16.00;99.90;;;;;;4992691;28;20528;-60
2021/09/08 00:33:50;;;;;;;15.50;11.47;;;15.90;99.90;;;;;;4992820;28;20956;-59
2021/09/08 00:36:17;;;;;;;17.40;12.47;;;16.00;99.90;;;;;;4992654;28;20459;-60
2021/09/08 00:38:44;;;;;;;16.93;12.20;;;15.90;99.90;;;;;;4992422;28;20485;-60
2021/09/08 00:41:13;;;;;;;16.13;11.60;;;15.90;99.90;;;;;;4992614;28;20479;-59
2021/09/08 00:43:40;;;;;;;20.37;13.37;;;15.90;99.90;;;;;;4973480;28;20455;-60
2021/09/08 00:46:07;;;;;;;19.50;12.97;;;15.80;99.90;;;;;;4973374;28;20471;-60
2021/09/08 00:48:34;;;;;;;15.50;11.53;;;15.80;99.90;;;;;;4981698;28;20453;-59
2021/09/08 00:51:01;;;;;;;16.60;12.40;;;15.80;99.90;;;;;;4991690;28;21007;-60
2021/09/08 00:53:29;;;;;;;15.10;11.80;;;15.90;99.90;;;;;;4992300;28;20454;-60
2021/09/08 00:55:57;;;;;;;13.73;10.63;;;15.90;99.90;;;;;;4992489;28;20442;-60
2021/09/08 00:58:25;;;;;;;17.47;12.50;;;15.90;99.90;;;;;;4992319;28;20482;-60
2021/09/08 01:00:52;;;;;;;16.83;12.10;;;15.90;99.90;;;;;;4991783;28;20995;-59
2021/09/08 01:03:19;;;;;;;17.80;12.63;;;15.90;99.90;;;;;;4992132;28;20458;-60
2021/09/08 01:05:47;;;;;;;17.43;12.47;;;15.80;99.90;;;;;;4992165;28;20458;-60
2021/09/08 01:08:14;;;;;;;17.80;12.13;;;15.80;99.90;;;;;;4991805;28;20450;-60
2021/09/08 01:10:42;;;;;;;16.00;12.00;;;15.70;99.90;;;;;;4992158;28;20474;-60
2021/09/08 01:13:09;;;;;;;18.23;13.10;;;15.60;99.90;;;;;;4992110;28;20458;-59
2021/09/08 01:15:38;;;;;;;16.00;11.63;;;15.70;99.90;;;;;;4985500;28;20454;-60
2021/09/08 01:18:05;;;;;;;16.83;11.87;;;15.60;99.90;;;;;;4991659;28;20474;-60
2021/09/08 01:20:32;;;;;;;16.87;12.50;;;15.60;99.90;;;;;;4991641;28;21007;-60
2021/09/08 01:23:01;;;;;;;15.87;11.53;;;15.40;99.90;;;;;;4992506;28;20450;-60
2021/09/08 01:25:28;;;;;;;16.97;11.83;;;15.40;99.90;;;;;;4991716;28;20461;-60
2021/09/08 01:27:56;;;;;;;17.10;12.07;;;15.50;99.90;;;;;;4991874;28;20875;-60
2021/09/08 01:30:25;;;;;;;15.37;11.37;;;15.40;99.90;;;;;;4991073;28;20494;-59
2021/09/08 01:32:52;;;;;;;14.63;10.97;;;15.40;99.90;;;;;;4992158;28;20883;-60
2021/09/08 01:35:22;;;;;;;15.50;12.13;;;15.50;99.90;;;;;;4991791;28;20497;-59
2021/09/08 01:37:50;;;;;;;19.60;12.37;;;15.50;99.90;;;;;;4991423;28;20485;-60
2021/09/08 01:40:19;;;;;;;16.20;11.87;;;15.40;99.90;;;;;;4991258;28;21078;-60
2021/09/08 01:42:47;;;;;;;16.77;11.77;;;15.40;99.90;;;;;;4991750;28;20462;-60
2021/09/08 01:45:16;;;;;;;17.07;11.83;;;15.30;99.90;;;;;;4991676;28;20450;-60
2021/09/08 01:47:45;;;;;;;14.73;12.17;;;15.30;99.90;;;;;;4991731;28;20513;-60
2021/09/08 01:50:12;;;;;;;15.83;12.13;;;15.30;99.90;;;;;;4991957;28;20892;-60
2021/09/08 01:52:40;;;;;;;17.63;12.27;;;15.30;99.90;;;;;;4991492;28;20453;-60
2021/09/08 01:55:11;;;;;;;15.80;12.00;;;15.40;99.90;;;;;;4986440;28;20454;-59
2021/09/08 01:57:40;;;;;;;19.00;13.60;;;15.50;99.90;;;;;;4991462;28;20913;-60
2021/09/08 02:00:12;;;;;;;20.77;13.60;;;15.30;99.90;;;;;;4991975;28;20818;-60
2021/09/08 02:02:39;;;;;;;20.20;14.47;;;15.20;99.90;;;;;;4992575;28;20550;-60
2021/09/08 02:05:08;;;;;;;19.30;13.30;;;15.20;99.90;;;;;;4995560;28;20940;-60
2021/09/08 02:07:35;;;;;;;15.13;11.43;;;15.10;99.90;;;;;;4995556;28;20451;-60
2021/09/08 02:10:02;;;;;;;15.30;12.27;;;15.20;99.90;;;;;;4994572;28;20524;-59
2021/09/08 02:12:29;;;;;;;15.80;12.10;;;15.20;99.90;;;;;;4994553;28;20454;-59
2021/09/08 02:14:58;;;;;;;18.17;12.80;;;15.20;99.90;;;;;;4995334;28;20998;-59
2021/09/08 02:17:25;;;;;;;16.73;11.80;;;15.30;99.90;;;;;;4995108;28;20477;-60
2021/09/08 02:19:53;;;;;;;17.43;11.50;;;15.30;99.90;;;;;;4994749;28;21050;-59
2021/09/08 02:22:20;;;;;;;18.60;12.10;;;15.20;99.90;;;;;;4994996;28;20454;-61
2021/09/08 02:24:47;;;;;;;17.23;13.60;;;15.20;99.90;;;;;;4995123;28;20504;-60
2021/09/08 02:27:14;;;;;;;14.90;11.40;;;15.20;99.90;;;;;;4994740;28;20897;-61
2021/09/08 02:29:41;;;;;;;13.50;10.60;;;15.20;99.90;;;;;;4995077;28;20559;-60
2021/09/08 02:32:10;;;;;;;16.60;12.00;;;15.20;99.90;;;;;;4994357;28;21018;-61
2021/09/08 02:34:37;;;;;;;13.87;10.53;;;15.10;99.90;;;;;;4994840;28;20513;-60
2021/09/08 02:37:04;;;;;;;21.30;11.57;;;15.10;99.90;;;;;;4994307;28;20461;-60
2021/09/08 02:39:31;;;;;;;16.00;11.33;;;15.10;99.90;;;;;;4995079;28;20474;-60
2021/09/08 02:41:58;;;;;;;20.03;11.07;;;15.00;99.90;;;;;;4994631;28;20937;-59
2021/09/08 02:44:25;;;;;;;18.33;12.00;;;15.00;99.90;;;;;;4994581;28;20462;-60
2021/09/08 02:46:52;;;;;;;15.73;11.40;;;15.00;99.90;;;;;;4994604;28;20454;-60
2021/09/08 02:49:20;;;;;;;12.53;10.13;;;14.90;99.90;;;;;;4993981;28;20450;-60
2021/09/08 02:51:47;;;;;;;16.27;11.53;;;14.90;99.90;;;;;;4994391;28;20877;-60
2021/09/08 02:54:14;;;;;;;17.20;12.10;;;15.00;99.90;;;;;;4994555;28;20462;-60
2021/09/08 02:56:41;;;;;;;16.00;11.37;;;15.00;99.90;;;;;;4994771;28;20458;-60
2021/09/08 02:59:08;;;;;;;14.80;11.20;;;14.90;99.90;;;;;;4994442;28;20490;-60
2021/09/08 03:01:35;;;;;;;13.57;11.10;;;14.90;99.90;;;;;;4993826;28;20524;-60
2021/09/08 03:04:02;;;;;;;15.97;11.90;;;14.90;99.90;;;;;;4994211;28;20454;-60
2021/09/08 03:06:31;;;;;;;16.90;11.77;;;14.90;99.90;;;;;;4994094;28;20459;-60
2021/09/08 03:08:58;;;;;;;16.50;11.93;;;14.80;99.90;;;;;;4994221;28;20447;-60
2021/09/08 03:11:26;;;;;;;16.83;12.10;;;14.90;99.90;;;;;;4994141;28;20474;-59
2021/09/08 03:13:53;;;;;;;16.37;11.87;;;14.80;99.90;;;;;;4994077;28;20972;-59
2021/09/08 03:16:20;;;;;;;19.77;12.17;;;14.80;99.90;;;;;;4993203;28;20454;-59
2021/09/08 03:18:47;;;;;;;19.93;13.30;;;14.80;99.90;;;;;;4993508;28;20911;-60
2021/09/08 03:21:14;;;;;;;22.23;13.67;;;14.80;99.90;;;;;;4993637;28;20840;-60
2021/09/08 03:23:42;;;;;;;21.13;12.93;;;14.60;99.90;;;;;;4993840;28;20513;-60
2021/09/08 03:26:10;;;;;;;20.83;13.27;;;14.60;99.90;;;;;;4994077;28;20451;-60
2021/09/08 03:28:37;;;;;;;21.23;13.63;;;14.50;99.90;;;;;;4994149;28;20453;-60
2021/09/08 03:31:04;;;;;;;17.57;12.20;;;14.50;99.90;;;;;;4993352;28;20482;-60
2021/09/08 03:33:31;;;;;;;16.20;12.57;;;14.50;99.90;;;;;;4993192;28;20532;-60
2021/09/08 03:35:58;;;;;;;17.53;13.23;;;14.50;99.90;;;;;;4992922;28;20497;-60
2021/09/08 03:38:25;;;;;;;16.10;12.20;;;14.60;99.90;;;;;;4993685;28;20493;-60
2021/09/08 03:40:53;;;;;;;16.67;12.13;;;14.60;99.90;;;;;;4993596;28;20478;-60
2021/09/08 03:43:20;;;;;;;18.07;13.20;;;14.70;99.90;;;;;;4993810;28;20513;-61
2021/09/08 03:45:47;;;;;;;18.30;12.07;;;14.60;99.90;;;;;;4993619;28;20533;-60
2021/09/08 03:48:14;;;;;;;18.17;12.27;;;14.60;99.90;;;;;;4993482;28;20872;-61
2021/09/08 03:50:41;;;;;;;16.00;11.53;;;14.60;99.90;;;;;;4992587;28;20474;-60
2021/09/08 03:53:08;;;;;;;17.10;12.20;;;14.60;99.90;;;;;;4993495;28;20461;-60
2021/09/08 03:55:35;;;;;;;15.97;11.13;;;14.60;99.90;;;;;;4993149;28;20459;-60
2021/09/08 03:58:04;;;;;;;14.77;11.40;;;14.60;99.90;;;;;;4993446;28;20509;-60
2021/09/08 04:00:31;;;;;;;17.27;11.60;;;14.60;99.90;;;;;;4989606;28;20475;-60
2021/09/08 04:02:57;;;;;;;17.73;11.70;;;14.50;99.90;;;;;;4990385;28;20513;-60
2021/09/08 04:05:25;;;;;;;18.93;11.70;;;14.50;99.90;;;;;;4992106;28;20458;-60
2021/09/08 04:07:52;;;;;;;17.87;12.37;;;14.60;99.90;;;;;;4991515;28;20493;-60
2021/09/08 04:10:19;;;;;;;16.40;12.30;;;14.60;99.90;;;;;;4991915;28;21007;-59
2021/09/08 04:12:46;;;;;;;18.33;12.50;;;14.60;99.90;;;;;;4992700;28;21088;-60
2021/09/08 04:15:15;;;;;;;19.93;12.63;;;14.60;99.90;;;;;;4992621;28;20447;-60
2021/09/08 04:17:43;;;;;;;15.70;12.07;;;14.60;99.90;;;;;;4988855;28;20553;-59
2021/09/08 04:20:11;;;;;;;17.63;11.67;;;14.60;99.90;;;;;;4991555;28;20470;-60
2021/09/08 04:22:38;;;;;;;17.13;12.60;;;14.70;99.90;;;;;;4986760;28;20452;-60
2021/09/08 04:25:05;;;;;;;18.40;11.40;;;14.60;99.90;;;;;;4991482;28;20446;-60
2021/09/08 04:27:33;;;;;;;17.20;10.97;;;14.50;99.90;;;;;;4990739;28;20454;-60
2021/09/08 04:30:00;;;;;;;17.40;11.70;;;14.40;99.90;;;;;;4991028;28;20479;-60
2021/09/08 04:32:28;;;;;;;14.37;11.73;;;14.50;99.90;;;;;;4991282;28;21019;-59
2021/09/08 04:34:55;;;;;;;15.27;11.87;;;14.50;99.90;;;;;;4991531;28;21015;-61
2021/09/08 04:37:22;;;;;;;15.40;11.33;;;14.60;99.90;;;;;;4991358;28;20481;-58
2021/09/08 04:39:49;;;;;;;16.30;12.40;;;14.50;99.90;;;;;;4989773;28;21062;-58
2021/09/08 04:42:16;;;;;;;15.07;11.07;;;14.50;99.90;;;;;;4990927;28;20450;-58
2021/09/08 04:44:44;;;;;;;17.83;13.90;;;14.50;99.90;;;;;;4990260;28;20952;-58
2021/09/08 04:47:11;;;;;;;27.63;18.63;;;14.50;99.90;;;;;;4991007;28;20451;-59
2021/09/08 04:49:40;;;;;;;23.20;15.77;;;14.40;99.90;;;;;;4991000;28;20509;-60
2021/09/08 04:52:07;;;;;;;22.30;14.30;;;14.40;99.90;;;;;;4991052;28;20446;-60
2021/09/08 04:54:34;;;;;;;20.50;14.23;;;14.40;99.90;;;;;;4990766;28;20942;-60
2021/09/08 04:57:01;;;;;;;19.60;13.20;;;14.30;99.90;;;;;;4991196;28;20451;-60
2021/09/08 04:59:28;;;;;;;19.73;13.77;;;14.30;99.90;;;;;;4991135;28;20489;-59
2021/09/08 05:01:55;;;;;;;17.30;13.50;;;14.40;99.90;;;;;;4986272;28;21405;-59
2021/09/08 05:04:22;;;;;;;20.53;13.97;;;14.40;99.90;;;;;;4991001;28;20450;-60
2021/09/08 05:06:51;;;;;;;22.73;13.07;;;14.30;99.90;;;;;;4991059;28;20994;-59
2021/09/08 05:09:18;;;;;;;19.50;13.10;;;14.30;99.90;;;;;;4991044;28;20612;-61
2021/09/08 05:11:45;;;;;;;17.20;13.57;;;14.40;99.90;;;;;;4990447;28;20447;-59
2021/09/08 05:14:12;;;;;;;18.20;12.80;;;14.50;99.90;;;;;;4991201;28;20454;-60
2021/09/08 05:16:39;;;;;;;18.80;12.27;;;14.50;99.90;;;;;;4992117;28;20457;-59
2021/09/08 05:19:06;;;;;;;16.23;12.53;;;14.60;99.90;;;;;;4992100;28;21011;-61
2021/09/08 05:21:33;;;;;;;19.73;12.83;;;14.70;99.90;;;;;;4991439;28;20466;-60
2021/09/08 05:24:01;;;;;;;19.07;13.47;;;14.70;99.90;;;;;;4990807;28;20887;-60
2021/09/08 05:26:28;;;;;;;18.80;12.60;;;14.80;99.90;;;;;;4990551;28;20482;-60
2021/09/08 05:28:55;;;;;;;17.07;12.03;;;14.80;99.90;;;;;;4990683;28;20454;-59
2021/09/08 05:31:22;;;;;;;20.17;13.53;;;14.80;99.90;;;;;;4990736;28;20470;-60
2021/09/08 05:33:49;;;;;;;22.30;14.30;;;14.90;99.90;;;;;;4990288;28;20461;-60
2021/09/08 05:36:16;;;;;;;21.23;14.07;;;15.00;99.90;;;;;;4990817;28;20537;-61
2021/09/08 05:38:45;;;;;;;20.23;13.07;;;15.00;99.90;;;;;;4993233;28;20478;-60
2021/09/08 05:41:13;;;;;;;21.60;12.87;;;15.10;99.90;;;;;;4994015;28;20480;-59
2021/09/08 05:43:40;;;;;;;19.10;14.27;;;15.20;99.90;;;;;;4993845;28;21036;-59
2021/09/08 05:46:07;;;;;;;20.17;13.60;;;15.30;99.90;;;;;;4990452;28;20514;-59
2021/09/08 05:48:35;;;;;;;18.80;12.80;;;15.70;99.90;;;;;;4993929;28;20522;-58
2021/09/08 05:51:02;;;;;;;18.37;13.10;;;16.20;99.90;;;;;;4993935;28;20990;-58
2021/09/08 05:53:29;;;;;;;20.43;13.70;;;17.00;99.90;;;;;;4994270;28;20446;-59
2021/09/08 05:55:56;;;;;;;18.10;12.20;;;17.70;99.90;;;;;;4994054;28;21125;-59
2021/09/08 05:58:25;;;;;;;22.33;13.60;;;18.50;99.90;;;;;;4992868;28;20479;-58
2021/09/08 06:00:52;;;;;;;17.30;11.97;;;19.20;99.90;;;;;;4993637;28;20474;-59
2021/09/08 06:03:19;;;;;;;16.03;12.60;;;19.80;99.90;;;;;;4991837;28;20513;-57
2021/09/08 06:05:46;;;;;;;15.60;12.13;;;19.80;99.90;;;;;;4993659;28;20877;-58
2021/09/08 06:08:13;;;;;;;19.40;11.80;;;19.80;99.90;;;;;;4994174;28;20447;-59
2021/09/08 06:10:39;;;;;;;16.27;11.33;;;20.40;99.90;;;;;;4993445;28;20524;-58
2021/09/08 06:13:07;;;;;;;13.45;11.05;;;20.80;99.90;;;;;;4989809;28;20452;-59
2021/09/08 06:15:35;;;;;;;14.83;11.10;;;21.40;99.90;;;;;;4993690;28;20273;-58
2021/09/08 06:18:04;;;;;;;17.53;12.10;;;21.80;99.90;;;;;;4993984;28;20449;-59
2021/09/08 06:20:31;;;;;;;13.17;10.50;;;22.20;99.90;;;;;;4994322;28;21209;-59
2021/09/08 06:22:58;;;;;;;15.47;12.20;;;22.50;99.90;;;;;;4994340;28;20450;-59
2021/09/08 06:25:25;;;;;;;16.80;12.83;;;22.80;99.90;;;;;;4994431;28;20528;-59
2021/09/08 06:27:52;;;;;;;18.97;12.80;;;23.00;99.90;;;;;;4994227;28;20948;-59
2021/09/08 06:30:19;;;;;;;18.13;13.00;;;23.30;99.90;;;;;;4993667;28;20477;-58
2021/09/08 06:32:47;;;;;;;20.03;13.17;;;23.60;99.90;;;;;;4992549;28;20458;-59
2021/09/08 06:35:15;;;;;;;19.63;13.87;;;23.80;99.90;;;;;;4994342;28;20850;-59
2021/09/08 06:37:43;;;;;;;16.30;12.80;;;24.00;99.90;;;;;;4994171;28;20870;-59
2021/09/08 06:40:13;;;;;;;17.80;12.13;;;24.00;99.90;;;;;;4993896;28;20582;-58
2021/09/08 06:42:40;;;;;;;15.63;11.90;;;24.30;99.90;;;;;;4993730;28;20450;-58
2021/09/08 06:45:08;;;;;;;18.53;11.70;;;24.60;99.90;;;;;;4993541;28;20478;-59
2021/09/08 06:47:35;;;;;;;11.30;9.87;;;24.50;99.90;;;;;;4992955;28;20450;-58
2021/09/08 06:50:04;;;;;;;12.07;9.70;;;24.70;99.90;;;;;;4992312;28;20466;-58
2021/09/08 06:52:31;;;;;;;13.60;11.10;;;24.60;99.90;;;;;;4993811;28;20442;-58
2021/09/08 06:54:58;;;;;;;14.53;10.77;;;24.60;99.90;;;;;;4993741;28;20956;-57
2021/09/08 06:57:25;;;;;;;13.00;10.73;;;24.30;99.90;;;;;;4993194;28;20450;-58
2021/09/08 06:59:52;;;;;;;13.53;11.00;;;23.20;99.90;;;;;;4993107;28;20536;-57
2021/09/08 07:02:19;;;;;;;14.60;10.57;;;22.00;99.90;;;;;;4993072;28;20458;-58
2021/09/08 07:04:46;;;;;;;13.27;11.00;;;21.70;99.90;;;;;;4993800;28;20458;-58
2021/09/08 07:07:14;;;;;;;13.97;10.90;;;22.00;99.90;;;;;;4991754;28;20451;-58
2021/09/08 07:09:41;;;;;;;14.43;11.00;;;22.00;99.90;;;;;;4993380;28;20467;-58
2021/09/08 07:12:10;;;;;;;12.70;10.93;;;22.10;99.90;;;;;;4993006;28;20442;-58
2021/09/08 07:14:37;;;;;;;18.60;12.80;;;21.70;99.90;;;;;;4992499;28;20517;-58
2021/09/08 07:17:04;;;;;;;14.03;9.90;;;21.10;99.90;;;;;;4993246;28;20443;-58
2021/09/08 07:19:33;;;;;;;13.90;10.70;;;21.40;99.90;;;;;;4992376;28;21042;-58
2021/09/08 07:22:00;;;;;;;20.07;12.03;;;21.30;99.90;;;;;;4993122;28;20450;-58
2021/09/08 07:24:28;;;;;;;14.37;11.03;;;20.80;99.90;;;;;;4993195;28;20450;-58
2021/09/08 07:26:57;;;;;;;14.60;11.07;;;21.10;99.90;;;;;;4993333;28;20514;-58
2021/09/08 07:29:24;;;;;;;20.77;11.00;;;21.80;99.90;;;;;;4988314;28;20952;-59
2021/09/08 07:31:52;;;;;;;15.03;11.60;;;21.80;99.90;;;;;;4993022;28;20458;-58
2021/09/08 07:34:20;;;;;;;14.10;10.63;;;21.90;99.90;;;;;;4993078;28;21010;-59
2021/09/08 07:36:47;;;;;;;14.20;11.10;;;22.40;99.90;;;;;;4992059;28;20510;-58
2021/09/08 07:39:15;;;;;;;12.80;11.00;;;22.20;99.90;;;;;;4992652;28;20474;-59
2021/09/08 07:41:46;;;;;;;14.30;9.70;;;21.70;99.90;;;;;;4992788;28;20468;-58
2021/09/08 07:44:13;;;;;;;16.03;10.53;;;22.20;99.90;;;;;;4992826;28;20446;-60
2021/09/08 07:46:41;;;;;;;15.63;11.90;;;22.30;99.90;;;;;;4992809;28;20972;-60
2021/09/08 07:49:10;;;;;;;15.73;11.57;;;22.00;99.90;;;;;;4992474;28;21002;-60
2021/09/08 07:51:38;;;;;;;14.40;11.40;;;22.80;99.90;;;;;;4992325;28;20466;-61
2021/09/08 07:54:06;;;;;;;16.00;11.87;;;23.50;99.90;;;;;;4992638;28;20451;-61
2021/09/08 07:56:33;;;;;;;16.43;12.83;;;24.20;99.90;;;;;;4992509;28;20552;-62
2021/09/08 07:59:02;;;;;;;18.17;13.43;;;24.10;99.90;;;;;;4992582;28;20858;-61
2021/09/08 08:01:32;;;;;;;14.37;11.57;;;24.10;99.90;;;;;;4986739;28;20605;-60
2021/09/08 08:04:00;;;;;;;14.80;11.37;;;23.90;99.90;;;;;;4992068;28;20882;-62
2021/09/08 08:06:27;;;;;;;16.90;11.60;;;23.90;99.90;;;;;;4991865;28;20716;-61
2021/09/08 08:08:54;;;;;;;14.17;11.90;;;23.50;99.90;;;;;;4991153;28;21003;-61
2021/09/08 08:11:22;;;;;;;15.47;12.43;;;24.30;99.90;;;;;;4991873;28;20466;-61
2021/09/08 08:13:49;;;;;;;14.17;12.20;;;23.70;99.90;;;;;;4991685;28;20955;-61
2021/09/08 08:16:17;;;;;;;15.13;11.80;;;24.10;99.90;;;;;;4990911;28;20454;-61
2021/09/08 08:18:44;;;;;;;15.73;12.87;;;24.60;99.90;;;;;;4991887;28;20446;-62
2021/09/08 08:21:11;;;;;;;15.63;13.40;;;25.10;99.90;;;;;;4987872;28;20525;-62
2021/09/08 08:23:38;;;;;;;15.30;12.40;;;25.60;99.90;;;;;;4992269;28;20455;-61
2021/09/08 08:26:06;;;;;;;14.83;11.57;;;25.80;99.90;;;;;;4992038;28;20499;-61
2021/09/08 08:28:33;;;;;;;15.73;12.90;;;25.70;99.90;;;;;;4992430;28;20512;-61
2021/09/08 08:31:01;;;;;;;16.30;12.73;;;24.90;99.90;;;;;;4987452;28;20975;-62
2021/09/08 08:33:30;;;;;;;19.17;13.47;;;24.30;99.90;;;;;;4990672;28;20979;-62
2021/09/08 08:35:57;;;;;;;15.70;12.30;;;24.40;99.90;;;;;;4990901;28;20446;-61
2021/09/08 08:38:24;;;;;;;15.57;13.27;;;24.90;99.90;;;;;;4989834;28;20454;-61
2021/09/08 08:40:51;;;;;;;14.40;12.00;;;25.50;99.90;;;;;;4985272;28;20486;-62
2021/09/08 08:43:19;;;;;;;14.67;11.60;;;25.60;99.90;;;;;;4990988;28;20469;-61
2021/09/08 08:45:47;;;;;;;17.40;12.37;;;25.70;99.90;;;;;;4990462;28;20447;-62
2021/09/08 08:48:14;;;;;;;14.57;12.20;;;25.60;99.90;;;;;;4990778;28;20859;-61
2021/09/08 08:50:43;;;;;;;16.43;12.33;;;25.00;99.90;;;;;;4990688;28;20466;-61
2021/09/08 08:53:10;;;;;;;14.50;12.00;;;24.50;99.90;;;;;;4990697;28;20501;-61
2021/09/08 08:55:37;;;;;;;13.83;11.63;;;25.00;99.90;;;;;;4990072;28;20513;-62
2021/09/08 08:58:04;;;;;;;14.33;12.00;;;25.30;99.90;;;;;;4990508;28;20450;-62
2021/09/08 09:00:31;;;;;;;15.30;13.17;;;25.80;99.90;;;;;;4990214;28;21074;-62
2021/09/08 09:02:58;;;;;;;20.70;12.77;;;25.60;99.90;;;;;;4990647;28;20824;-61
2021/09/08 09:05:35;;;;;;;16.77;11.10;;;26.30;99.90;;;;;;4990665;28;20446;-62
2021/09/08 09:08:05;;;;;;;16.07;13.17;;;26.60;99.90;;;;;;4990604;28;20469;-63
2021/09/08 09:10:33;;;;;;;17.77;13.13;;;26.20;99.90;;;;;;4989796;28;20474;-61
2021/09/08 09:13:00;;;;;;;14.83;12.83;;;25.50;99.90;;;;;;4992978;28;21010;-62
2021/09/08 09:15:28;;;;;;;18.23;13.30;;;25.70;99.90;;;;;;4993324;28;20446;-62
2021/09/08 09:17:56;;;;;;;17.47;13.77;;;25.70;99.90;;;;;;4996223;28;20447;-61
2021/09/08 09:20:25;;;;;;;16.93;14.37;;;24.70;99.90;;;;;;4994610;28;21022;-62
2021/09/08 09:22:55;;;;;;;18.67;13.47;;;24.90;99.90;;;;;;4995619;28;20455;-61
2021/09/08 09:25:25;;;;;;;17.00;13.67;;;24.80;99.90;;;;;;4996758;28;20454;-62
2021/09/08 09:27:54;;;;;;;16.40;13.17;;;24.30;99.90;;;;;;4993521;28;20446;-61
2021/09/08 09:30:24;;;;;;;15.70;13.40;;;24.60;99.90;;;;;;4996416;28;20540;-61
2021/09/08 09:32:53;;;;;;;17.57;14.50;;;25.30;99.90;;;;;;4995872;28;20489;-62
2021/09/08 09:35:21;;;;;;;15.27;12.90;;;25.70;99.90;;;;;;4996970;28;20500;-61
2021/09/08 09:37:51;;;;;;;18.37;14.17;;;26.00;99.90;;;;;;4996703;28;20450;-63
2021/09/08 09:40:24;;;;;;;17.37;13.30;;;25.70;99.90;;;;;;4996812;28;20493;-63
2021/09/08 09:42:53;;;;;;;18.67;13.50;;;25.80;99.90;;;;;;4997154;28;20434;-62
2021/09/08 09:45:20;;;;;;;19.10;15.03;;;25.90;99.90;;;;;;4995682;28;20466;-62
2021/09/08 09:47:49;;;;;;;15.47;12.17;;;26.00;99.90;;;;;;4996783;28;20455;-61
2021/09/08 09:50:19;;;;;;;17.90;13.70;;;25.60;99.90;;;;;;4996455;28;20521;-63
2021/09/08 09:52:47;;;;;;;16.80;13.10;;;25.90;99.90;;;;;;4996898;28;20505;-63
2021/09/08 09:55:15;;;;;;;17.10;12.70;;;25.80;99.90;;;;;;4993226;28;20477;-62
2021/09/08 09:57:43;;;;;;;21.33;13.83;;;25.60;99.90;;;;;;4996268;28;20509;-63
2021/09/08 10:00:16;;;;;;;18.70;13.97;;;25.50;99.90;;;;;;4996404;28;20986;-62
2021/09/08 10:02:45;;;;;;;16.80;13.57;;;24.80;99.90;;;;;;4996739;28;20870;-61
2021/09/08 10:05:13;;;;;;;20.33;13.53;;;24.70;99.90;;;;;;4996614;28;20442;-61
2021/09/08 10:07:40;;;;;;;19.40;14.23;;;24.70;99.90;;;;;;4995989;28;20845;-61
2021/09/08 10:10:14;;;;;;;16.00;12.50;;;23.80;99.90;;;;;;4996294;28;20470;-61
2021/09/08 10:12:45;;;;;;;16.00;12.77;;;24.20;99.90;;;;;;4994995;28;20955;-62
2021/09/08 10:15:15;;;;;;;15.60;12.30;;;24.80;99.90;;;;;;4996590;28;20534;-61
2021/09/08 10:17:45;;;;;;;16.50;12.77;;;25.60;99.90;;;;;;4996458;28;20450;-61
2021/09/08 10:20:17;;;;;;;17.43;13.17;;;25.70;99.90;;;;;;4996224;28;20486;-64
2021/09/08 10:22:45;;;;;;;16.10;12.77;;;25.70;99.90;;;;;;4994536;28;20462;-62
2021/09/08 10:25:16;;;;;;;15.90;12.70;;;25.00;99.90;;;;;;4992966;28;20450;-63
2021/09/08 10:27:44;;;;;;;14.33;12.60;;;24.80;99.90;;;;;;4993512;28;20458;-61
2021/09/08 10:30:16;;;;;;;16.00;12.70;;;25.20;99.90;;;;;;4993627;28;21112;-62
2021/09/08 10:32:43;;;;;;;15.13;12.40;;;25.10;99.90;;;;;;4993683;28;20612;-62
2021/09/08 10:35:16;;;;;;;17.17;12.93;;;24.70;99.90;;;;;;4994346;28;20450;-61
2021/09/08 10:37:47;;;;;;;16.37;12.43;;;24.20;99.90;;;;;;4994038;28;20458;-62
2021/09/08 10:40:16;;;;;;;15.90;12.73;;;24.40;99.90;;;;;;4994174;28;20904;-62
2021/09/08 10:42:53;;;;;;;14.50;12.47;;;24.70;99.90;;;;;;4994029;28;20446;-62
2021/09/08 10:45:23;;;;;;;16.13;13.20;;;25.10;99.90;;;;;;4994200;28;20508;-60
2021/09/08 10:47:51;;;;;;;16.30;11.50;;;24.80;99.90;;;;;;4993872;28;20455;-61
2021/09/08 10:50:40;;;;;;;17.70;12.20;;;24.80;99.90;;;;;;4994240;28;20466;-61
2021/09/08 10:53:28;;;;;;;15.37;11.50;;;24.80;99.90;;;;;;4993989;28;20960;-61
2021/09/08 10:55:56;;;;;;;12.10;10.00;;;24.30;99.90;;;;;;4986319;28;20458;-61
2021/09/08 10:58:23;;;;;;;13.03;9.90;;;24.10;99.90;;;;;;4993030;28;20451;-62
2021/09/08 11:00:51;;;;;;;14.03;9.80;;;23.30;99.90;;;;;;4993750;28;20529;-61
2021/09/08 11:03:27;;;;;;;12.20;10.43;;;23.30;99.90;;;;;;4993866;28;20509;-60
2021/09/08 11:05:56;;;;;;;14.30;10.13;;;23.40;99.90;;;;;;4993542;28;20834;-61
2021/09/08 11:08:26;;;;;;;14.07;9.50;;;23.50;99.90;;;;;;4993477;28;20521;-62
2021/09/08 11:11:06;;;;;;;19.43;10.77;;;23.80;99.90;;;;;;4988455;28;20515;-61
2021/09/08 11:13:35;;;;;;;12.53;9.63;;;24.20;99.90;;;;;;4990984;28;20557;-61
2021/09/08 11:16:15;;;;;;;11.13;9.20;;;24.10;99.90;;;;;;4992714;28;20454;-61
2021/09/08 11:18:42;;;;;;;11.20;10.00;;;24.10;99.90;;;;;;4991602;28;20540;-62
2021/09/08 11:21:09;;;;;;;12.00;10.00;;;24.20;99.90;;;;;;4992932;28;20601;-60
2021/09/08 11:23:37;;;;;;;12.77;9.30;;;24.30;99.90;;;;;;4991360;28;20459;-61
2021/09/08 11:26:08;;;;;;;12.37;9.23;;;23.60;99.90;;;;;;4992474;28;20546;-61
2021/09/08 11:28:36;;;;;;;13.23;8.67;;;23.60;99.90;;;;;;4993269;28;20879;-61
2021/09/08 11:31:16;;;;;;;9.53;8.47;;;23.60;99.90;;;;;;4992678;28;20475;-61
2021/09/08 11:33:44;;;;;;;10.77;9.47;;;24.20;99.90;;;;;;4992807;28;20516;-61
2021/09/08 11:36:13;;;;;;;10.40;9.30;;;24.30;99.90;;;;;;4992025;28;20454;-61
2021/09/08 11:38:46;;;;;;;14.20;8.53;;;23.70;99.90;;;;;;4990094;28;20534;-61
2021/09/08 11:41:14;;;;;;;11.30;9.13;;;23.60;99.90;;;;;;4992868;28;20540;-61
2021/09/08 11:43:44;;;;;;;14.70;9.20;;;23.70;99.90;;;;;;4993238;28;20494;-61
2021/09/08 11:46:18;;;;;;;10.10;9.00;;;23.50;99.90;;;;;;4992241;28;20461;-61
2021/09/08 11:48:46;;;;;;;13.10;9.80;;;23.30;99.90;;;;;;4992122;28;20450;-61
2021/09/08 11:51:16;;;;;;;9.93;8.93;;;23.30;99.90;;;;;;4990456;28;20544;-60
2021/09/08 11:53:43;;;;;;;10.57;9.00;;;23.30;99.90;;;;;;4993337;28;20496;-60
2021/09/08 11:56:12;;;;;;;12.30;9.20;;;23.00;99.90;;;;;;4993182;28;20447;-61
2021/09/08 11:58:39;;;;;;;11.40;9.43;;;22.90;99.90;;;;;;4992939;28;20498;-61
2021/09/08 12:01:08;;;;;;;9.70;8.53;;;22.90;99.90;;;;;;4992254;28;20905;-61
2021/09/08 12:03:40;;;;;;;11.80;8.60;;;23.10;99.90;;;;;;4992344;28;20530;-61
2021/09/08 12:06:12;;;;;;;9.13;8.23;;;23.00;99.90;;;;;;4992246;28;20478;-61
2021/09/08 12:08:52;;;;;;;8.83;7.63;;;23.00;99.90;;;;;;4992704;28;20513;-61
2021/09/08 12:11:41;;;;;;;11.30;8.98;;;23.50;99.90;;;;;;4986108;28;20467;-60
2021/09/08 12:14:27;;;;;;;10.43;7.70;;;23.50;99.90;;;;;;4992078;28;20210;-60
2021/09/08 12:17:02;;;;;;;9.13;7.93;;;23.60;99.90;;;;;;4992344;28;20454;-61
2021/09/08 12:19:33;;;;;;;9.20;8.07;;;24.00;99.90;;;;;;4988881;28;20474;-60
2021/09/08 12:22:06;;;;;;;10.60;8.40;;;23.80;99.90;;;;;;4988861;28;20482;-60
2021/09/08 12:24:35;;;;;;;10.23;8.37;;;23.90;99.90;;;;;;4988027;28;20451;-60
2021/09/08 12:27:02;;;;;;;15.90;9.47;;;23.90;99.90;;;;;;4991462;28;20513;-60
2021/09/08 12:29:29;;;;;;;10.90;8.13;;;23.70;99.90;;;;;;4991876;28;20521;-60
2021/09/08 12:32:00;;;;;;;10.17;7.57;;;23.60;99.90;;;;;;4991645;28;20936;-59
2021/09/08 12:34:44;;;;;;;10.23;8.90;;;23.60;99.90;;;;;;4991952;28;20477;-60